Time;durP1;ratioP1;P1;durP2;ratioP2;P2;SDS_P1;SDS_P2;PMS_P1;PMS_P2;Temp;Humidity;BMP_temperature;BMP_pressure;BME280_temperature;BME280_humidity;BME280_pressure;Samples;Min_cycle;Max_cycle;Signal;HPM_P1;HPM_P2
2022/05/20 00:00:12;;;;;;;5.13;4.80;;;23.00;52.10;;;;;;20641;6759;295668;-68
2022/05/20 00:02:48;;;;;;;6.23;4.57;;;23.20;51.70;;;;;;20787;6774;117393;-68
2022/05/20 00:05:24;;;;;;;5.23;4.93;;;23.20;51.20;;;;;;20554;6792;307743;-68
2022/05/20 00:08:00;;;;;;;4.93;4.53;;;23.40;52.00;;;;;;20678;6792;117637;-68
2022/05/20 00:10:35;;;;;;;5.50;5.00;;;23.30;51.30;;;;;;20482;6809;279801;-68
2022/05/20 00:13:11;;;;;;;4.77;4.50;;;23.40;51.30;;;;;;20725;6802;117971;-68
2022/05/20 00:15:47;;;;;;;5.47;5.00;;;22.90;51.60;;;;;;20699;6813;117723;-68
2022/05/20 00:18:23;;;;;;;5.37;4.87;;;22.90;51.60;;;;;;20379;6809;310293;-68
2022/05/20 00:21:01;;;;;;;4.90;4.60;;;23.10;52.00;;;;;;20726;6798;117489;-68
2022/05/20 00:23:37;;;;;;;5.37;4.90;;;23.00;51.80;;;;;;20817;6771;117547;-68
2022/05/20 00:26:12;;;;;;;4.60;4.30;;;22.70;52.10;;;;;;20771;6786;117400;-68
2022/05/20 00:28:49;;;;;;;4.93;4.60;;;22.60;52.50;;;;;;20609;6791;117655;-67
2022/05/20 00:31:25;;;;;;;6.00;4.90;;;22.40;52.70;;;;;;20823;6768;119077;-68
2022/05/20 00:34:01;;;;;;;5.33;4.93;;;22.70;53.40;;;;;;20567;6783;280171;-68
2022/05/20 00:36:36;;;;;;;5.80;5.20;;;22.70;53.20;;;;;;20542;6785;304383;-68
2022/05/20 00:39:12;;;;;;;6.10;5.32;;;23.10;52.30;;;;;;20579;6785;307755;-68
2022/05/20 00:41:48;;;;;;;5.47;4.97;;;23.60;51.10;;;;;;20584;6773;307627;-67
2022/05/20 00:44:25;;;;;;;5.00;4.60;;;23.60;51.10;;;;;;20513;6773;300017;-67
2022/05/20 00:47:00;;;;;;;5.23;4.77;;;23.60;51.20;;;;;;20751;6783;119477;-68
2022/05/20 00:49:36;;;;;;;5.47;4.73;;;23.50;51.10;;;;;;20783;6782;117132;-68
2022/05/20 00:52:11;;;;;;;4.80;4.43;;;23.20;51.60;;;;;;20831;6781;118527;-69
2022/05/20 00:54:47;;;;;;;5.10;4.70;;;22.90;51.90;;;;;;20614;6765;278776;-67
2022/05/20 00:57:30;;;;;;;6.60;5.23;;;23.00;52.30;;;;;;20750;6782;118397;-68
2022/05/20 01:00:12;;;;;;;5.53;5.03;;;23.00;51.80;;;;;;20655;6757;277642;-67
2022/05/20 01:02:49;;;;;;;5.82;5.40;;;23.50;51.20;;;;;;20611;6766;308151;-68
2022/05/20 01:05:27;;;;;;;5.80;5.30;;;23.50;51.20;;;;;;20535;6780;307096;-69
2022/05/20 01:08:04;;;;;;;6.00;5.50;;;23.80;50.90;;;;;;20557;6764;313771;-68
2022/05/20 01:10:39;;;;;;;5.30;4.90;;;23.80;50.90;;;;;;20865;6751;118533;-69
2022/05/20 01:13:15;;;;;;;6.00;5.60;;;23.50;51.20;;;;;;20545;6794;278205;-69
2022/05/20 01:15:51;;;;;;;6.00;5.55;;;23.70;51.40;;;;;;20587;6777;336326;-68
2022/05/20 01:18:27;;;;;;;5.93;5.50;;;23.70;51.40;;;;;;20670;6778;118049;-68
2022/05/20 01:21:03;;;;;;;5.77;5.30;;;23.60;51.80;;;;;;20571;6780;282573;-68
2022/05/20 01:23:39;;;;;;;5.80;5.40;;;23.50;51.70;;;;;;20774;6780;117103;-67
2022/05/20 01:26:14;;;;;;;5.27;4.80;;;23.40;51.80;;;;;;20724;6795;117890;-67
2022/05/20 01:28:50;;;;;;;5.73;5.33;;;23.10;52.20;;;;;;20551;6781;117953;-69
2022/05/20 01:31:35;;;;;;;5.37;4.97;;;22.60;53.40;;;;;;20757;6784;117590;-68
2022/05/20 01:34:02;;;;;;;6.57;6.03;;;22.60;52.70;;;;;;20636;6764;307697;-67
2022/05/20 01:36:37;;;;;;;7.32;5.60;;;22.90;52.50;;;;;;20562;6781;278900;-68
2022/05/20 01:39:13;;;;;;;6.30;5.70;;;23.30;51.70;;;;;;20443;6824;325384;-68
2022/05/20 01:42:02;;;;;;;5.60;5.03;;;23.60;51.40;;;;;;20735;6778;118968;-67
2022/05/20 01:44:37;;;;;;;6.20;4.80;;;23.40;51.30;;;;;;20781;6763;118057;-68
2022/05/20 01:47:19;;;;;;;5.68;5.18;;;23.00;51.70;;;;;;20519;6781;288494;-68
2022/05/20 01:49:55;;;;;;;7.03;5.77;;;23.20;51.70;;;;;;20837;6766;117166;-69
2022/05/20 01:52:37;;;;;;;5.60;5.20;;;23.00;51.60;;;;;;20819;6766;129024;-68
2022/05/20 01:55:12;;;;;;;5.10;4.80;;;22.80;51.80;;;;;;20792;6780;118125;-68
2022/05/20 01:57:52;;;;;;;5.73;5.23;;;22.60;52.10;;;;;;20757;6766;117139;-67
2022/05/20 02:00:27;;;;;;;5.95;5.45;;;22.40;52.40;;;;;;20532;6825;308553;-68
2022/05/20 02:03:14;;;;;;;5.97;5.57;;;22.70;52.20;;;;;;20530;6798;309166;-68
2022/05/20 02:06:06;;;;;;;6.43;5.90;;;23.40;50.70;;;;;;20600;6772;279308;-68
2022/05/20 02:08:52;;;;;;;7.70;5.73;;;23.60;50.30;;;;;;20414;6772;280285;-68
2022/05/20 02:11:33;;;;;;;5.90;5.40;;;23.50;50.10;;;;;;20768;6784;118476;-68
2022/05/20 02:14:26;;;;;;;5.60;5.20;;;23.30;50.50;;;;;;20510;6792;281440;-68
2022/05/20 02:17:08;;;;;;;5.77;5.30;;;23.30;50.80;;;;;;20505;6796;283464;-68
2022/05/20 02:19:47;;;;;;;6.20;5.67;;;23.50;50.50;;;;;;20547;6786;307798;-68
2022/05/20 02:22:22;;;;;;;5.57;5.20;;;23.70;50.30;;;;;;20716;6772;118658;-68
2022/05/20 02:24:58;;;;;;;6.20;5.73;;;23.40;51.00;;;;;;20536;6794;307706;-68
2022/05/20 02:27:34;;;;;;;5.93;5.43;;;23.40;51.00;;;;;;20713;6789;117499;-69
2022/05/20 02:30:12;;;;;;;6.37;5.33;;;23.30;51.10;;;;;;20778;6778;119778;-67
2022/05/20 02:32:51;;;;;;;6.40;5.73;;;23.00;51.40;;;;;;20522;6794;307666;-68
2022/05/20 02:35:27;;;;;;;5.70;5.30;;;23.20;51.40;;;;;;20590;6773;310246;-68
2022/05/20 02:38:05;;;;;;;7.27;5.40;;;23.60;50.90;;;;;;20440;6794;281081;-69
2022/05/20 02:40:41;;;;;;;5.57;5.17;;;23.80;50.40;;;;;;20740;6794;118238;-68
2022/05/20 02:43:16;;;;;;;5.73;5.33;;;23.60;50.50;;;;;;20798;6779;117204;-68
2022/05/20 02:45:53;;;;;;;5.60;5.20;;;23.40;51.50;;;;;;20537;6794;283154;-67
2022/05/20 02:48:28;;;;;;;5.62;5.28;;;23.30;51.30;;;;;;20382;6794;307440;-67
2022/05/20 02:51:05;;;;;;;5.20;4.70;;;23.40;51.20;;;;;;20742;6794;120938;-68
2022/05/20 02:53:40;;;;;;;6.53;5.93;;;23.40;51.20;;;;;;20708;6799;117715;-68
2022/05/20 02:56:16;;;;;;;6.27;5.50;;;23.10;51.70;;;;;;20794;6779;117936;-68
2022/05/20 03:04:42;;;;;;;6.53;5.93;;;23.40;52.10;;;;;;20557;6779;306354;-68
2022/05/20 03:07:19;;;;;;;6.30;5.80;;;23.70;51.40;;;;;;20508;6786;309358;-68
2022/05/20 03:09:54;;;;;;;6.00;5.53;;;23.70;51.40;;;;;;20557;6786;290695;-67
2022/05/20 03:12:30;;;;;;;5.43;4.93;;;23.80;52.20;;;;;;20712;6795;117472;-68
2022/05/20 03:15:06;;;;;;;5.43;5.13;;;23.40;51.80;;;;;;20721;6806;118488;-67
2022/05/20 03:17:41;;;;;;;6.20;5.60;;;23.00;52.50;;;;;;20470;6806;338858;-67
2022/05/20 03:20:17;;;;;;;5.90;5.50;;;23.10;52.70;;;;;;20763;6774;117305;-68
2022/05/20 03:22:52;;;;;;;9.70;5.77;;;22.90;52.70;;;;;;20779;6774;117538;-68
2022/05/20 03:25:28;;;;;;;5.13;4.70;;;22.60;53.00;;;;;;20772;6791;117567;-68
2022/05/20 03:28:04;;;;;;;6.00;5.40;;;22.40;53.40;;;;;;20702;6774;119218;-68
2022/05/20 03:30:40;;;;;;;6.23;5.70;;;22.00;53.90;;;;;;20827;6763;117726;-66
2022/05/20 03:33:15;;;;;;;6.90;5.77;;;22.00;53.80;;;;;;20636;6766;300812;-68
2022/05/20 03:35:51;;;;;;;6.60;6.00;;;22.30;54.00;;;;;;20793;6777;117120;-68
2022/05/20 03:38:27;;;;;;;5.77;5.40;;;22.30;53.70;;;;;;20704;6762;119078;-67
2022/05/20 03:41:02;;;;;;;6.30;5.80;;;22.10;53.80;;;;;;20845;6759;117316;-68
2022/05/20 03:43:38;;;;;;;7.13;6.70;;;22.20;54.30;;;;;;20594;6774;277616;-69
2022/05/20 03:46:14;;;;;;;7.67;6.97;;;22.20;54.30;;;;;;20587;6780;298519;-70
2022/05/20 03:48:50;;;;;;;7.07;6.57;;;22.60;53.60;;;;;;20630;6776;117804;-65
2022/05/20 03:51:25;;;;;;;7.20;6.70;;;22.60;53.50;;;;;;20871;6754;119543;-66
2022/05/20 03:54:01;;;;;;;7.95;7.25;;;22.30;54.50;;;;;;20658;6754;277934;-66
2022/05/20 03:56:38;;;;;;;8.87;6.80;;;22.60;53.60;;;;;;20865;6754;117652;-67
2022/05/20 03:59:12;;;;;;;7.13;6.40;;;22.50;53.30;;;;;;20793;6769;117656;-66
2022/05/20 04:01:57;;;;;;;7.10;6.60;;;22.30;53.50;;;;;;20585;6774;278492;-65
2022/05/20 04:04:39;;;;;;;7.13;6.53;;;22.60;53.50;;;;;;20625;6759;309523;-66
2022/05/20 04:07:14;;;;;;;6.93;6.40;;;23.00;52.80;;;;;;20564;6774;309772;-66
2022/05/20 04:09:50;;;;;;;6.83;6.23;;;23.30;52.20;;;;;;20819;6774;118366;-66
2022/05/20 04:12:26;;;;;;;7.70;7.00;;;23.20;52.50;;;;;;20557;6774;281738;-65
2022/05/20 04:15:02;;;;;;;6.77;6.23;;;23.20;53.00;;;;;;20782;6774;118441;-65
2022/05/20 04:17:38;;;;;;;7.05;6.57;;;23.00;52.50;;;;;;20442;6787;292153;-64
2022/05/20 04:20:13;;;;;;;7.33;6.63;;;23.10;52.60;;;;;;20540;6787;307820;-64
2022/05/20 04:22:49;;;;;;;6.90;6.30;;;23.40;52.10;;;;;;20767;6782;117509;-63
2022/05/20 04:25:25;;;;;;;7.13;6.63;;;23.30;52.30;;;;;;20564;6787;309590;-63
2022/05/20 04:28:00;;;;;;;6.70;6.20;;;23.30;52.50;;;;;;20451;6787;309976;-64
2022/05/20 04:30:36;;;;;;;7.10;6.60;;;23.70;51.40;;;;;;20543;6785;308710;-65
2022/05/20 04:33:13;;;;;;;6.30;5.90;;;23.70;51.40;;;;;;20798;6773;119340;-66
2022/05/20 04:35:48;;;;;;;6.20;5.80;;;23.40;51.50;;;;;;20770;6785;117616;-64
2022/05/20 04:38:23;;;;;;;6.47;5.97;;;23.00;52.60;;;;;;20397;6785;307087;-65
2022/05/20 04:46:59;;;;;;;5.87;5.37;;;22.70;52.80;;;;;;20782;6773;117996;-66
2022/05/20 04:49:35;;;;;;;6.37;5.70;;;22.40;53.30;;;;;;20793;6776;121793;-66
2022/05/20 04:52:10;;;;;;;6.10;5.70;;;22.20;53.70;;;;;;20790;6775;117519;-66
2022/05/20 04:54:49;;;;;;;6.17;5.57;;;22.10;54.00;;;;;;20770;6777;117152;-67
2022/05/20 04:57:27;;;;;;;6.70;6.20;;;22.00;54.10;;;;;;20557;6765;279285;-67
2022/05/20 05:00:09;;;;;;;6.97;6.37;;;22.40;54.00;;;;;;20527;6792;307289;-67
2022/05/20 05:02:45;;;;;;;6.10;5.70;;;22.90;53.20;;;;;;20735;6788;118780;-67
2022/05/20 05:05:20;;;;;;;6.77;6.27;;;22.90;53.10;;;;;;20722;6796;117365;-66
2022/05/20 05:07:56;;;;;;;6.90;6.40;;;22.70;53.40;;;;;;20464;6784;311617;-67
2022/05/20 05:10:32;;;;;;;7.05;6.53;;;23.00;54.20;;;;;;20519;6785;337944;-68
2022/05/20 05:13:09;;;;;;;6.03;5.63;;;23.40;53.20;;;;;;20865;6752;117644;-67
2022/05/20 05:15:45;;;;;;;6.67;6.17;;;23.20;53.80;;;;;;20862;6752;117517;-67
2022/05/20 05:18:25;;;;;;;6.43;6.03;;;23.20;53.40;;;;;;20538;6752;281263;-69
2022/05/20 05:20:56;;;;;;;6.00;5.50;;;23.50;53.20;;;;;;20854;6755;117593;-67
2022/05/20 05:23:32;;;;;;;6.40;6.00;;;23.50;53.30;;;;;;20840;6760;116985;-70
2022/05/20 05:26:07;;;;;;;7.00;6.40;;;23.40;52.90;;;;;;20605;6770;278237;-66
2022/05/20 05:28:44;;;;;;;6.23;5.73;;;23.80;53.00;;;;;;20604;6785;117883;-69
2022/05/20 05:31:19;;;;;;;6.03;5.53;;;23.80;53.00;;;;;;20747;6789;119286;-70
2022/05/20 05:33:55;;;;;;;6.30;5.90;;;23.70;53.20;;;;;;20533;6796;281518;-69
2022/05/20 05:36:30;;;;;;;6.30;5.80;;;24.00;53.20;;;;;;20514;6775;309149;-69
2022/05/20 05:39:06;;;;;;;5.93;5.33;;;24.40;52.80;;;;;;20521;6810;120043;-68
2022/05/20 05:41:42;;;;;;;5.70;5.30;;;24.40;53.20;;;;;;20787;6776;117516;-68
2022/05/20 05:44:18;;;;;;;5.97;5.57;;;24.20;53.10;;;;;;20795;6776;119504;-69
2022/05/20 05:46:53;;;;;;;6.67;6.07;;;24.00;53.00;;;;;;20729;6788;117423;-68
2022/05/20 05:49:28;;;;;;;9.30;6.37;;;23.80;53.40;;;;;;20838;6747;117533;-68
2022/05/20 05:52:04;;;;;;;6.53;6.03;;;23.60;53.60;;;;;;20659;6760;278097;-68
2022/05/20 05:54:40;;;;;;;6.50;6.00;;;23.90;54.00;;;;;;20539;6781;337885;-68
2022/05/20 05:57:15;;;;;;;7.00;6.40;;;24.30;53.30;;;;;;20530;6781;290491;-68
2022/05/20 05:59:51;;;;;;;5.77;5.47;;;24.60;52.90;;;;;;20782;6779;119082;-68
2022/05/20 06:02:27;;;;;;;6.03;5.50;;;24.20;53.50;;;;;;20815;6779;118996;-68
2022/05/20 06:05:03;;;;;;;6.60;6.00;;;24.20;52.90;;;;;;20554;6789;308125;-68
2022/05/20 06:07:39;;;;;;;6.05;5.60;;;24.80;51.40;;;;;;20538;6769;312991;-68
2022/05/20 06:10:15;;;;;;;5.60;5.20;;;24.80;51.40;;;;;;20637;6760;335826;-68
2022/05/20 06:12:50;;;;;;;5.97;5.50;;;25.20;51.10;;;;;;20750;6788;117517;-67
2022/05/20 06:15:26;;;;;;;6.13;5.73;;;25.20;51.30;;;;;;20550;6789;292619;-67
2022/05/20 06:18:01;;;;;;;6.13;5.40;;;25.30;52.00;;;;;;20686;6776;119119;-67
2022/05/20 06:20:37;;;;;;;6.20;5.80;;;25.40;52.20;;;;;;20786;6776;118261;-67
2022/05/20 06:23:12;;;;;;;6.40;5.70;;;25.40;52.70;;;;;;20768;6779;117754;-67
2022/05/20 06:25:48;;;;;;;6.50;5.90;;;25.70;52.90;;;;;;20639;6760;307109;-68
2022/05/20 06:52:03;;;;;;;6.27;5.77;;;29.80;44.80;;;;;;21307;6486;273768;-67
2022/05/20 06:54:30;;;;;;;6.53;5.50;;;30.20;43.70;;;;;;21436;6637;67748;-67
2022/05/20 06:56:56;;;;;;;5.43;5.03;;;30.20;42.00;;;;;;21201;6638;329215;-67
2022/05/20 06:59:23;;;;;;;5.80;5.43;;;30.20;41.90;;;;;;21462;6625;66095;-68
2022/05/20 07:01:48;;;;;;;5.60;5.17;;;29.70;42.70;;;;;;21465;6625;65766;-67
2022/05/20 07:04:14;;;;;;;5.57;5.17;;;29.70;42.60;;;;;;21454;6623;69889;-67
2022/05/20 07:06:39;;;;;;;6.53;5.23;;;29.40;42.80;;;;;;21249;6623;301142;-68
2022/05/20 07:09:05;;;;;;;5.60;5.20;;;29.60;41.70;;;;;;21253;6623;307306;-68
2022/05/20 07:11:31;;;;;;;5.57;4.70;;;30.00;42.20;;;;;;21462;6623;65121;-68
2022/05/20 07:13:58;;;;;;;6.77;4.70;;;30.00;41.70;;;;;;21466;6623;65250;-67
2022/05/20 07:16:23;;;;;;;5.22;4.78;;;30.10;41.10;;;;;;21257;6623;300393;-67
2022/05/20 07:18:49;;;;;;;4.67;4.37;;;30.10;41.00;;;;;;21464;6623;67259;-67
2022/05/20 07:21:14;;;;;;;6.27;4.57;;;30.10;41.30;;;;;;21470;6623;65120;-66
2022/05/20 07:23:40;;;;;;;4.80;4.40;;;30.00;41.40;;;;;;21248;6623;290387;-67
2022/05/20 07:26:06;;;;;;;4.80;4.47;;;30.20;39.90;;;;;;21251;6623;302998;-66
2022/05/20 07:28:31;;;;;;;4.85;4.55;;;30.50;39.70;;;;;;21254;6623;271563;-67
2022/05/20 07:30:57;;;;;;;4.97;4.50;;;30.60;39.00;;;;;;21250;6623;328977;-67
2022/05/20 07:33:22;;;;;;;5.07;4.57;;;30.80;39.20;;;;;;21255;6623;324475;-67
2022/05/20 07:35:48;;;;;;;5.80;4.53;;;30.90;39.00;;;;;;21475;6623;65727;-67
2022/05/20 07:38:13;;;;;;;5.03;4.53;;;30.80;39.20;;;;;;21247;6623;273333;-67
2022/05/20 07:40:39;;;;;;;5.40;4.63;;;30.80;39.30;;;;;;21244;6623;299880;-67
2022/05/20 07:43:04;;;;;;;4.87;4.47;;;31.10;39.70;;;;;;21468;6623;65137;-69
2022/05/20 07:45:31;;;;;;;5.17;4.33;;;31.20;38.30;;;;;;21252;6623;274413;-66
2022/05/20 07:47:56;;;;;;;5.00;4.40;;;31.20;38.30;;;;;;21475;6623;66133;-69
2022/05/20 07:50:22;;;;;;;4.77;4.37;;;31.20;38.70;;;;;;21469;6623;66134;-66
2022/05/20 07:55:36;;;;;;;4.93;4.53;;;31.30;40.70;;;;;;21258;6623;300823;-64
2022/05/20 07:58:02;;;;;;;4.90;4.50;;;31.60;40.90;;;;;;21254;6623;300732;-64
2022/05/20 08:00:27;;;;;;;6.17;4.03;;;32.00;39.70;;;;;;21470;6623;65659;-64
2022/05/20 08:02:53;;;;;;;5.10;4.60;;;32.00;39.40;;;;;;21263;6622;271697;-64
2022/05/20 08:05:20;;;;;;;5.20;4.70;;;32.00;38.70;;;;;;21241;6623;300729;-64
2022/05/20 08:07:44;;;;;;;4.80;4.40;;;32.30;39.60;;;;;;21241;6623;304236;-66
2022/05/20 08:10:11;;;;;;;6.03;4.70;;;32.50;38.80;;;;;;21469;6623;66011;-68
2022/05/20 08:12:36;;;;;;;5.20;4.87;;;32.40;39.40;;;;;;21459;6623;65629;-67
2022/05/20 08:15:02;;;;;;;5.28;4.82;;;32.40;39.60;;;;;;21253;6623;329958;-67
2022/05/20 08:17:29;;;;;;;7.07;4.23;;;32.50;39.40;;;;;;21467;6623;66069;-66
2022/05/20 08:19:54;;;;;;;4.50;4.10;;;32.40;39.30;;;;;;21462;6623;66174;-68
2022/05/20 08:22:22;;;;;;;4.87;4.40;;;32.30;39.10;;;;;;21233;6623;302239;-67
2022/05/20 08:24:45;;;;;;;5.20;4.03;;;32.50;39.40;;;;;;21461;6623;65238;-68
2022/05/20 08:27:11;;;;;;;4.80;4.10;;;32.50;38.70;;;;;;21238;6623;300504;-69
2022/05/20 08:29:36;;;;;;;5.80;3.97;;;32.70;37.30;;;;;;21477;6623;65740;-67
2022/05/20 08:32:02;;;;;;;4.65;4.12;;;32.70;37.40;;;;;;21255;6623;273107;-68
2022/05/20 08:34:28;;;;;;;4.43;4.03;;;32.90;37.70;;;;;;21256;6623;283468;-66
2022/05/20 08:36:53;;;;;;;4.40;4.00;;;33.20;35.30;;;;;;21266;6623;271875;-66
2022/05/20 08:39:19;;;;;;;4.40;4.00;;;33.40;35.20;;;;;;21480;6623;65813;-67
2022/05/20 08:41:44;;;;;;;6.07;4.32;;;33.50;36.20;;;;;;21264;6623;271137;-67
2022/05/20 08:44:12;;;;;;;4.20;3.90;;;33.60;36.20;;;;;;21157;6623;302142;-66
2022/05/20 08:46:36;;;;;;;4.62;4.28;;;33.80;35.10;;;;;;21253;6623;303348;-68
2022/05/20 08:49:02;;;;;;;4.47;4.07;;;33.90;34.30;;;;;;21490;6623;66041;-67
2022/05/20 08:51:28;;;;;;;4.43;4.03;;;33.90;34.20;;;;;;21482;6623;65550;-68
2022/05/20 08:53:53;;;;;;;4.28;3.90;;;33.70;34.90;;;;;;21258;6623;300330;-67
2022/05/20 08:56:19;;;;;;;4.33;4.03;;;33.80;35.60;;;;;;21488;6623;65194;-67
2022/05/20 08:59:01;;;;;;;4.85;4.10;;;33.80;35.30;;;;;;21247;6623;302946;-67
2022/05/20 09:01:33;;;;;;;4.20;3.90;;;33.90;33.70;;;;;;21247;6623;300257;-67
2022/05/20 09:03:59;;;;;;;4.93;4.43;;;34.20;34.10;;;;;;21456;6623;65561;-67
2022/05/20 09:06:24;;;;;;;4.53;4.10;;;34.20;33.50;;;;;;21464;6623;65584;-66
2022/05/20 09:09:06;;;;;;;5.03;4.37;;;34.00;33.50;;;;;;21242;6623;271021;-70
2022/05/20 09:11:32;;;;;;;6.23;4.30;;;34.00;34.60;;;;;;21458;6623;65247;-67
2022/05/20 09:17:13;;;;;;;6.70;4.20;;;34.20;32.90;;;;;;21468;6623;65364;-67
2022/05/20 09:19:39;;;;;;;4.87;3.93;;;34.20;33.10;;;;;;21210;6623;271919;-67
2022/05/20 09:22:08;;;;;;;4.57;4.18;;;34.80;32.40;;;;;;21193;6623;331996;-67
2022/05/20 09:24:43;;;;;;;5.40;3.70;;;34.70;32.30;;;;;;21454;6623;66315;-67
2022/05/20 09:27:09;;;;;;;4.17;3.80;;;34.70;32.50;;;;;;21477;6623;65127;-69
2022/05/20 09:29:47;;;;;;;4.43;4.03;;;34.60;33.10;;;;;;21477;6623;65161;-67
2022/05/20 09:32:26;;;;;;;4.53;4.07;;;34.50;33.00;;;;;;21252;6623;271140;-68
2022/05/20 09:35:18;;;;;;;4.70;4.30;;;34.90;31.80;;;;;;20998;6623;271381;-67
2022/05/20 09:37:44;;;;;;;4.17;3.87;;;34.90;31.80;;;;;;21198;6642;292614;-67
2022/05/20 09:40:33;;;;;;;4.40;4.10;;;35.20;32.00;;;;;;21417;6631;65321;-68
2022/05/20 09:43:02;;;;;;;5.23;4.10;;;35.10;31.90;;;;;;21221;6631;301624;-69
2022/05/20 09:45:28;;;;;;;4.23;4.00;;;35.20;31.10;;;;;;21427;6631;66258;-65
2022/05/20 09:47:54;;;;;;;5.33;4.23;;;35.10;31.40;;;;;;21451;6631;65242;-65
2022/05/20 09:50:29;;;;;;;4.67;4.20;;;34.90;32.00;;;;;;21223;6631;302863;-66
2022/05/20 09:53:01;;;;;;;4.30;3.90;;;35.40;33.40;;;;;;21228;6631;271822;-66
2022/05/20 09:55:31;;;;;;;4.00;3.70;;;35.40;33.40;;;;;;21437;6631;65601;-65
2022/05/20 09:57:55;;;;;;;4.53;3.87;;;35.40;31.80;;;;;;21429;6631;65144;-67
2022/05/20 10:00:23;;;;;;;6.03;4.20;;;35.50;32.20;;;;;;21227;6631;271944;-67
2022/05/20 10:02:50;;;;;;;4.05;3.65;;;35.50;32.20;;;;;;21225;6631;271900;-68
2022/05/20 10:05:26;;;;;;;4.27;3.47;;;35.80;30.40;;;;;;21425;6631;66160;-66
2022/05/20 10:08:01;;;;;;;4.90;4.00;;;35.80;30.60;;;;;;21435;6631;66261;-68
2022/05/20 10:10:47;;;;;;;4.07;3.50;;;35.60;30.70;;;;;;21445;6631;67136;-66
2022/05/20 10:13:35;;;;;;;4.50;4.00;;;35.40;31.30;;;;;;21221;6631;300633;-67
2022/05/20 10:16:11;;;;;;;4.77;3.70;;;35.60;30.00;;;;;;21449;6631;66034;-67
2022/05/20 10:18:42;;;;;;;5.20;3.87;;;35.50;30.00;;;;;;21405;6631;66244;-67
2022/05/20 10:21:21;;;;;;;4.00;3.60;;;35.40;30.80;;;;;;21460;6631;70115;-68
2022/05/20 10:24:06;;;;;;;5.47;3.80;;;35.30;30.80;;;;;;21230;6631;302472;-70
2022/05/20 10:26:35;;;;;;;6.93;3.55;;;35.40;29.00;;;;;;21194;6629;304022;-70
2022/05/20 10:34:49;;;;;;;3.67;3.37;;;35.80;28.70;;;;;;21458;6631;68094;-75
2022/05/20 10:37:34;;;;;;;5.30;3.65;;;35.50;28.40;;;;;;21456;6631;66304;-72
2022/05/20 10:40:23;;;;;;;3.77;3.47;;;35.30;29.40;;;;;;21445;6631;92241;-69
2022/05/20 10:43:29;;;;;;;4.00;3.60;;;35.20;29.80;;;;;;20888;6631;272260;-71
2022/05/20 10:49:03;;;;;;;4.33;3.80;;;35.30;29.90;;;;;;21459;6631;65272;-73
2022/05/20 10:52:09;;;;;;;3.50;3.20;;;35.30;29.80;;;;;;21420;6631;65313;-80
2022/05/20 10:54:35;;;;;;;3.80;3.45;;;35.40;28.90;;;;;;21228;6631;274296;-73
2022/05/20 10:57:33;;;;;;;4.77;3.53;;;35.50;29.00;;;;;;21413;6631;69411;-76
2022/05/20 11:00:05;;;;;;;3.73;3.43;;;35.50;29.10;;;;;;21446;6631;65236;-73
2022/05/20 11:02:54;;;;;;;3.77;3.30;;;35.30;29.00;;;;;;21441;6631;66275;-72
2022/05/20 11:05:59;;;;;;;6.37;3.70;;;35.20;29.10;;;;;;21420;6631;65800;-74
2022/05/20 11:08:44;;;;;;;3.80;3.40;;;35.10;29.20;;;;;;21445;6631;69834;-73
2022/05/20 11:11:34;;;;;;;5.00;3.50;;;35.00;29.10;;;;;;21222;6631;300936;-72
2022/05/20 11:14:39;;;;;;;4.77;3.40;;;35.20;27.90;;;;;;21451;6631;65619;-69
2022/05/20 11:17:27;;;;;;;6.67;3.53;;;35.30;28.10;;;;;;21453;6631;65680;-68
2022/05/20 11:19:59;;;;;;;3.83;3.28;;;35.10;28.10;;;;;;21225;6631;331609;-68
2022/05/20 11:22:48;;;;;;;4.30;3.17;;;35.30;27.40;;;;;;21184;6631;302981;-68
2022/05/20 11:25:16;;;;;;;5.30;3.00;;;35.70;28.30;;;;;;21233;6631;303983;-70
2022/05/20 11:27:52;;;;;;;3.60;3.30;;;36.10;27.50;;;;;;21439;6631;65944;-70
2022/05/20 11:30:21;;;;;;;3.70;3.40;;;36.10;27.30;;;;;;21410;6631;70580;-71
2022/05/20 11:32:50;;;;;;;5.63;3.40;;;35.80;27.10;;;;;;21287;6631;65210;-70
2022/05/20 11:35:34;;;;;;;6.57;3.53;;;35.70;27.00;;;;;;21194;6631;325844;-70
2022/05/20 11:38:19;;;;;;;4.50;3.43;;;35.70;25.60;;;;;;21439;6630;65731;-69
2022/05/20 11:41:12;;;;;;;4.87;3.33;;;35.60;26.30;;;;;;21214;6631;272352;-69
2022/05/20 11:43:41;;;;;;;4.53;3.20;;;35.60;25.40;;;;;;21446;6631;65226;-73
2022/05/20 11:46:09;;;;;;;4.90;2.93;;;35.50;26.50;;;;;;21423;6631;69429;-72
2022/05/20 11:48:55;;;;;;;6.30;3.17;;;35.30;26.60;;;;;;21232;6631;318475;-71
2022/05/20 11:51:44;;;;;;;6.22;3.50;;;35.30;26.30;;;;;;21222;6631;323132;-72
2022/05/20 11:54:13;;;;;;;4.03;3.17;;;35.60;26.50;;;;;;21438;6631;66400;-71
2022/05/20 11:56:39;;;;;;;3.83;3.17;;;35.60;26.40;;;;;;21219;6631;289578;-72
2022/05/20 11:59:16;;;;;;;3.83;3.50;;;35.60;26.40;;;;;;21433;6631;65655;-77
2022/05/20 12:01:41;;;;;;;4.10;3.47;;;35.50;26.00;;;;;;21203;6631;300860;-72
2022/05/20 12:04:07;;;;;;;5.27;3.40;;;35.60;26.20;;;;;;21431;6631;65510;-72
2022/05/20 12:06:36;;;;;;;6.87;3.37;;;35.50;26.40;;;;;;21442;6631;65212;-72
2022/05/20 12:09:01;;;;;;;3.37;3.07;;;35.40;26.60;;;;;;21197;6631;285338;-72
2022/05/20 12:11:30;;;;;;;3.70;3.40;;;35.40;25.30;;;;;;21124;6631;307047;-72
2022/05/20 12:14:06;;;;;;;3.63;3.17;;;35.60;25.80;;;;;;21437;6631;66248;-72
2022/05/20 12:16:31;;;;;;;3.53;3.00;;;35.60;26.30;;;;;;21435;6631;66269;-71
2022/05/20 12:24:41;;;;;;;3.90;3.40;;;35.20;25.60;;;;;;21223;6631;301392;-70
2022/05/20 12:27:23;;;;;;;5.80;3.10;;;35.40;25.50;;;;;;21439;6631;65286;-70
2022/05/20 12:30:05;;;;;;;3.90;3.40;;;35.40;26.00;;;;;;21221;6631;301364;-70
2022/05/20 12:32:34;;;;;;;4.37;3.50;;;35.40;26.30;;;;;;21441;6631;65911;-70
2022/05/20 12:35:07;;;;;;;4.60;3.17;;;35.30;26.30;;;;;;21233;6631;271831;-69
2022/05/20 12:37:43;;;;;;;3.50;3.17;;;35.30;26.60;;;;;;21416;6631;66251;-70
2022/05/20 12:40:18;;;;;;;3.90;3.10;;;35.30;26.50;;;;;;21445;6631;66233;-71
2022/05/20 12:42:47;;;;;;;3.95;3.28;;;35.10;26.50;;;;;;21225;6631;271937;-72
2022/05/20 12:45:12;;;;;;;5.50;3.37;;;35.20;26.40;;;;;;21417;6631;65579;-73
2022/05/20 12:47:39;;;;;;;5.60;3.10;;;35.10;27.00;;;;;;21446;6630;67192;-75
2022/05/20 12:50:08;;;;;;;5.40;3.43;;;35.10;27.00;;;;;;21222;6631;300499;-72
2022/05/20 12:52:35;;;;;;;8.17;3.47;;;35.20;26.40;;;;;;21395;6631;69582;-78
2022/05/20 12:55:00;;;;;;;6.83;3.33;;;35.20;26.60;;;;;;21346;6631;66320;-71
2022/05/20 12:57:29;;;;;;;4.73;3.10;;;35.10;27.60;;;;;;21174;6631;302283;-71
2022/05/20 13:00:05;;;;;;;4.40;3.10;;;35.50;25.70;;;;;;21195;6631;275526;-72
2022/05/20 13:02:36;;;;;;;3.37;3.07;;;35.50;26.10;;;;;;21435;6631;68126;-72
2022/05/20 13:05:05;;;;;;;3.87;3.30;;;35.50;26.10;;;;;;21217;6631;300792;-76
2022/05/20 13:07:31;;;;;;;3.93;3.60;;;35.50;26.40;;;;;;21425;6631;65727;-72
2022/05/20 13:09:57;;;;;;;4.57;3.15;;;35.40;26.30;;;;;;21211;6631;332766;-73
2022/05/20 13:12:23;;;;;;;4.00;3.20;;;35.70;26.60;;;;;;21224;6631;274319;-74
2022/05/20 13:14:55;;;;;;;4.07;3.20;;;35.70;26.70;;;;;;21429;6631;65737;-72
2022/05/20 13:17:21;;;;;;;3.40;3.10;;;35.60;26.40;;;;;;21436;6631;66234;-72
2022/05/20 13:19:47;;;;;;;5.40;3.40;;;35.30;27.20;;;;;;21433;6631;65967;-71
2022/05/20 13:22:12;;;;;;;5.30;3.60;;;35.00;26.70;;;;;;21430;6631;65658;-73
2022/05/20 13:24:38;;;;;;;5.93;3.30;;;34.90;27.20;;;;;;21426;6631;65209;-76
2022/05/20 13:27:07;;;;;;;4.70;3.10;;;34.60;27.60;;;;;;21438;6631;66471;-72
2022/05/20 13:29:33;;;;;;;3.73;3.43;;;34.60;27.60;;;;;;21431;6631;69923;-73
2022/05/20 13:32:20;;;;;;;9.32;3.65;;;34.60;27.30;;;;;;21228;6631;273268;-73
2022/05/20 13:34:44;;;;;;;5.40;3.10;;;34.70;27.80;;;;;;21411;6631;66586;-73
2022/05/20 13:37:13;;;;;;;7.87;3.20;;;34.80;27.80;;;;;;21384;6631;77027;-77
2022/05/20 13:39:39;;;;;;;5.53;3.77;;;34.70;27.60;;;;;;21162;6631;301672;-72
2022/05/20 13:42:11;;;;;;;4.57;3.47;;;34.90;26.90;;;;;;21224;6631;300579;-72
2022/05/20 13:44:40;;;;;;;6.25;3.28;;;35.40;27.00;;;;;;21230;6631;272297;-72
2022/05/20 13:49:51;;;;;;;4.47;3.23;;;35.30;27.10;;;;;;21220;6631;300955;-71
2022/05/20 13:52:17;;;;;;;8.13;3.60;;;35.30;27.40;;;;;;21436;6631;65499;-71
2022/05/20 13:54:46;;;;;;;5.40;3.20;;;35.20;27.40;;;;;;21225;6631;293664;-71
2022/05/20 13:57:14;;;;;;;3.73;3.30;;;35.20;27.90;;;;;;21428;6631;66234;-71
2022/05/20 13:59:41;;;;;;;8.57;3.30;;;35.10;28.20;;;;;;21423;6630;65719;-71
2022/05/20 14:02:08;;;;;;;3.60;3.28;;;34.90;28.50;;;;;;21215;6631;330923;-71
2022/05/20 14:04:44;;;;;;;4.33;3.53;;;35.00;27.70;;;;;;21448;6631;65766;-72
2022/05/20 14:07:16;;;;;;;4.50;3.40;;;35.00;28.10;;;;;;21437;6637;65622;-72
2022/05/20 14:09:41;;;;;;;4.03;3.60;;;34.80;27.80;;;;;;21461;6629;69429;-72
2022/05/20 14:12:10;;;;;;;5.10;3.47;;;34.60;27.70;;;;;;21424;6637;65205;-70